sensor_id;sensor_type;location;lat;lon;timestamp;P1;durP1;ratioP1;P2;durP2;ratioP2
16975;SDS011;8604;48.148;-1.786;2023-02-28T00:02:24;11.20;;;6.00;;
16975;SDS011;8604;48.148;-1.786;2023-02-28T00:04:54;10.40;;;5.13;;
16975;SDS011;8604;48.148;-1.786;2023-02-28T00:07:28;11.30;;;5.70;;
16975;SDS011;8604;48.148;-1.786;2023-02-28T00:09:58;10.03;;;5.77;;
16975;SDS011;8604;48.148;-1.786;2023-02-28T00:12:27;11.83;;;4.97;;
16975;SDS011;8604;48.148;-1.786;2023-02-28T00:14:56;8.60;;;5.03;;
16975;SDS011;8604;48.148;-1.786;2023-02-28T00:17:24;10.13;;;5.33;;
16975;SDS011;8604;48.148;-1.786;2023-02-28T00:19:53;9.80;;;5.07;;
16975;SDS011;8604;48.148;-1.786;2023-02-28T00:22:22;9.90;;;5.50;;
16975;SDS011;8604;48.148;-1.786;2023-02-28T00:24:50;11.43;;;6.13;;
16975;SDS011;8604;48.148;-1.786;2023-02-28T00:27:20;10.70;;;5.80;;
16975;SDS011;8604;48.148;-1.786;2023-02-28T00:29:48;11.60;;;5.67;;
16975;SDS011;8604;48.148;-1.786;2023-02-28T00:32:17;10.70;;;5.10;;
16975;SDS011;8604;48.148;-1.786;2023-02-28T00:34:46;12.00;;;5.37;;
16975;SDS011;8604;48.148;-1.786;2023-02-28T00:37:14;10.07;;;5.93;;
16975;SDS011;8604;48.148;-1.786;2023-02-28T00:39:43;9.77;;;5.30;;
16975;SDS011;8604;48.148;-1.786;2023-02-28T00:42:11;10.40;;;5.60;;
16975;SDS011;8604;48.148;-1.786;2023-02-28T00:44:41;11.70;;;6.17;;
16975;SDS011;8604;48.148;-1.786;2023-02-28T00:47:10;9.90;;;5.97;;
16975;SDS011;8604;48.148;-1.786;2023-02-28T00:49:39;10.03;;;5.87;;
16975;SDS011;8604;48.148;-1.786;2023-02-28T00:52:08;10.80;;;5.70;;
16975;SDS011;8604;48.148;-1.786;2023-02-28T00:54:37;10.43;;;5.83;;
16975;SDS011;8604;48.148;-1.786;2023-02-28T00:57:06;10.57;;;5.57;;
16975;SDS011;8604;48.148;-1.786;2023-02-28T00:59:35;10.77;;;5.40;;
16975;SDS011;8604;48.148;-1.786;2023-02-28T01:02:06;9.00;;;5.50;;
16975;SDS011;8604;48.148;-1.786;2023-02-28T01:04:36;10.87;;;5.10;;
16975;SDS011;8604;48.148;-1.786;2023-02-28T01:07:04;10.03;;;5.47;;
16975;SDS011;8604;48.148;-1.786;2023-02-28T01:09:33;9.67;;;5.67;;
16975;SDS011;8604;48.148;-1.786;2023-02-28T01:12:01;8.73;;;5.40;;
16975;SDS011;8604;48.148;-1.786;2023-02-28T01:14:29;9.70;;;5.20;;
16975;SDS011;8604;48.148;-1.786;2023-02-28T01:16:58;9.67;;;5.30;;
16975;SDS011;8604;48.148;-1.786;2023-02-28T01:19:28;10.13;;;5.63;;
16975;SDS011;8604;48.148;-1.786;2023-02-28T01:21:56;10.20;;;5.67;;
16975;SDS011;8604;48.148;-1.786;2023-02-28T01:24:28;12.33;;;5.57;;
16975;SDS011;8604;48.148;-1.786;2023-02-28T01:26:59;10.90;;;5.47;;
16975;SDS011;8604;48.148;-1.786;2023-02-28T01:29:28;9.87;;;5.93;;
16975;SDS011;8604;48.148;-1.786;2023-02-28T01:31:57;11.13;;;6.13;;
16975;SDS011;8604;48.148;-1.786;2023-02-28T01:34:27;9.77;;;5.47;;
16975;SDS011;8604;48.148;-1.786;2023-02-28T01:36:55;9.10;;;5.77;;
16975;SDS011;8604;48.148;-1.786;2023-02-28T01:39:25;8.50;;;5.27;;
16975;SDS011;8604;48.148;-1.786;2023-02-28T01:41:53;9.87;;;6.07;;
16975;SDS011;8604;48.148;-1.786;2023-02-28T01:47:27;9.57;;;5.40;;
16975;SDS011;8604;48.148;-1.786;2023-02-28T01:50:01;9.97;;;6.03;;
16975;SDS011;8604;48.148;-1.786;2023-02-28T01:52:31;9.80;;;5.60;;
16975;SDS011;8604;48.148;-1.786;2023-02-28T01:55:02;9.80;;;6.03;;
16975;SDS011;8604;48.148;-1.786;2023-02-28T01:57:35;9.20;;;5.93;;
16975;SDS011;8604;48.148;-1.786;2023-02-28T02:00:08;11.47;;;5.80;;
16975;SDS011;8604;48.148;-1.786;2023-02-28T02:02:46;10.57;;;5.87;;
16975;SDS011;8604;48.148;-1.786;2023-02-28T02:05:19;11.80;;;5.93;;
16975;SDS011;8604;48.148;-1.786;2023-02-28T02:07:52;10.80;;;6.17;;
16975;SDS011;8604;48.148;-1.786;2023-02-28T02:10:27;10.57;;;5.67;;
16975;SDS011;8604;48.148;-1.786;2023-02-28T02:13:04;10.27;;;6.23;;
16975;SDS011;8604;48.148;-1.786;2023-02-28T02:15:42;11.33;;;6.07;;
16975;SDS011;8604;48.148;-1.786;2023-02-28T02:18:20;11.50;;;6.33;;
16975;SDS011;8604;48.148;-1.786;2023-02-28T02:24:02;12.53;;;6.13;;
16975;SDS011;8604;48.148;-1.786;2023-02-28T02:26:47;13.00;;;6.40;;
16975;SDS011;8604;48.148;-1.786;2023-02-28T02:29:31;13.30;;;6.27;;
16975;SDS011;8604;48.148;-1.786;2023-02-28T02:32:36;10.40;;;6.33;;
16975;SDS011;8604;48.148;-1.786;2023-02-28T02:35:22;12.13;;;6.07;;
16975;SDS011;8604;48.148;-1.786;2023-02-28T02:37:59;8.83;;;5.97;;
16975;SDS011;8604;48.148;-1.786;2023-02-28T02:40:35;10.77;;;6.07;;
16975;SDS011;8604;48.148;-1.786;2023-02-28T02:43:10;12.87;;;6.40;;
16975;SDS011;8604;48.148;-1.786;2023-02-28T02:45:44;12.10;;;6.30;;
16975;SDS011;8604;48.148;-1.786;2023-02-28T02:48:16;10.03;;;6.00;;
16975;SDS011;8604;48.148;-1.786;2023-02-28T02:50:50;9.30;;;6.13;;
16975;SDS011;8604;48.148;-1.786;2023-02-28T02:53:21;9.87;;;6.30;;
16975;SDS011;8604;48.148;-1.786;2023-02-28T02:55:55;10.40;;;6.20;;
16975;SDS011;8604;48.148;-1.786;2023-02-28T02:58:27;12.37;;;6.80;;
16975;SDS011;8604;48.148;-1.786;2023-02-28T03:00:59;12.53;;;6.50;;
16975;SDS011;8604;48.148;-1.786;2023-02-28T03:03:34;12.80;;;6.37;;
16975;SDS011;8604;48.148;-1.786;2023-02-28T03:06:05;10.60;;;6.70;;
16975;SDS011;8604;48.148;-1.786;2023-02-28T03:08:35;12.80;;;6.60;;
16975;SDS011;8604;48.148;-1.786;2023-02-28T03:11:06;10.93;;;6.93;;
16975;SDS011;8604;48.148;-1.786;2023-02-28T03:13:53;12.90;;;7.07;;
16975;SDS011;8604;48.148;-1.786;2023-02-28T03:16:34;12.20;;;6.60;;
16975;SDS011;8604;48.148;-1.786;2023-02-28T03:19:13;12.10;;;7.13;;
16975;SDS011;8604;48.148;-1.786;2023-02-28T03:22:01;11.67;;;7.23;;
16975;SDS011;8604;48.148;-1.786;2023-02-28T03:24:45;10.07;;;7.00;;
16975;SDS011;8604;48.148;-1.786;2023-02-28T03:27:21;10.63;;;6.73;;
16975;SDS011;8604;48.148;-1.786;2023-02-28T03:29:56;11.77;;;6.73;;
16975;SDS011;8604;48.148;-1.786;2023-02-28T03:32:29;10.73;;;6.70;;
16975;SDS011;8604;48.148;-1.786;2023-02-28T03:35:06;12.13;;;6.73;;
16975;SDS011;8604;48.148;-1.786;2023-02-28T03:37:43;11.00;;;7.00;;
16975;SDS011;8604;48.148;-1.786;2023-02-28T03:40:14;12.10;;;6.87;;
16975;SDS011;8604;48.148;-1.786;2023-02-28T03:42:44;10.90;;;7.20;;
16975;SDS011;8604;48.148;-1.786;2023-02-28T03:45:18;13.13;;;7.73;;
16975;SDS011;8604;48.148;-1.786;2023-02-28T03:47:51;11.10;;;7.73;;
16975;SDS011;8604;48.148;-1.786;2023-02-28T03:50:22;13.00;;;6.80;;
16975;SDS011;8604;48.148;-1.786;2023-02-28T03:52:56;11.87;;;7.20;;
16975;SDS011;8604;48.148;-1.786;2023-02-28T03:55:28;10.43;;;7.20;;
16975;SDS011;8604;48.148;-1.786;2023-02-28T03:58:01;12.07;;;7.17;;
16975;SDS011;8604;48.148;-1.786;2023-02-28T04:00:38;11.70;;;7.53;;
16975;SDS011;8604;48.148;-1.786;2023-02-28T04:03:08;12.17;;;7.37;;
16975;SDS011;8604;48.148;-1.786;2023-02-28T04:05:44;14.07;;;8.03;;
16975;SDS011;8604;48.148;-1.786;2023-02-28T04:08:18;12.13;;;7.93;;
16975;SDS011;8604;48.148;-1.786;2023-02-28T04:10:48;13.17;;;7.60;;
16975;SDS011;8604;48.148;-1.786;2023-02-28T04:13:21;14.27;;;7.90;;
16975;SDS011;8604;48.148;-1.786;2023-02-28T04:15:50;12.00;;;8.40;;
16975;SDS011;8604;48.148;-1.786;2023-02-28T04:18:18;10.67;;;7.87;;
16975;SDS011;8604;48.148;-1.786;2023-02-28T04:20:47;14.60;;;8.30;;
16975;SDS011;8604;48.148;-1.786;2023-02-28T04:23:15;13.87;;;8.00;;
16975;SDS011;8604;48.148;-1.786;2023-02-28T04:25:45;11.43;;;7.47;;
16975;SDS011;8604;48.148;-1.786;2023-02-28T04:28:13;12.10;;;7.97;;
16975;SDS011;8604;48.148;-1.786;2023-02-28T04:30:42;12.60;;;8.20;;
16975;SDS011;8604;48.148;-1.786;2023-02-28T04:33:10;13.27;;;8.13;;
16975;SDS011;8604;48.148;-1.786;2023-02-28T04:35:39;12.53;;;7.70;;
16975;SDS011;8604;48.148;-1.786;2023-02-28T04:38:07;12.83;;;8.10;;
16975;SDS011;8604;48.148;-1.786;2023-02-28T04:40:36;13.43;;;8.40;;
16975;SDS011;8604;48.148;-1.786;2023-02-28T04:43:05;13.33;;;7.87;;
16975;SDS011;8604;48.148;-1.786;2023-02-28T04:45:34;14.93;;;8.80;;
16975;SDS011;8604;48.148;-1.786;2023-02-28T04:48:03;13.60;;;8.90;;
16975;SDS011;8604;48.148;-1.786;2023-02-28T04:50:32;13.07;;;8.83;;
16975;SDS011;8604;48.148;-1.786;2023-02-28T04:53:00;11.57;;;8.57;;
16975;SDS011;8604;48.148;-1.786;2023-02-28T04:55:29;14.67;;;9.43;;
16975;SDS011;8604;48.148;-1.786;2023-02-28T04:57:57;13.73;;;8.30;;
16975;SDS011;8604;48.148;-1.786;2023-02-28T05:00:27;12.47;;;8.60;;
16975;SDS011;8604;48.148;-1.786;2023-02-28T05:02:55;11.20;;;8.20;;
16975;SDS011;8604;48.148;-1.786;2023-02-28T05:05:24;12.03;;;8.37;;
16975;SDS011;8604;48.148;-1.786;2023-02-28T05:07:52;15.23;;;9.17;;
16975;SDS011;8604;48.148;-1.786;2023-02-28T05:10:23;13.03;;;7.90;;
16975;SDS011;8604;48.148;-1.786;2023-02-28T05:12:52;13.07;;;8.97;;
16975;SDS011;8604;48.148;-1.786;2023-02-28T05:15:20;13.13;;;8.70;;
16975;SDS011;8604;48.148;-1.786;2023-02-28T05:17:51;14.17;;;8.90;;
16975;SDS011;8604;48.148;-1.786;2023-02-28T05:20:19;12.20;;;8.60;;
16975;SDS011;8604;48.148;-1.786;2023-02-28T05:22:49;14.83;;;9.50;;
16975;SDS011;8604;48.148;-1.786;2023-02-28T05:25:19;12.80;;;9.53;;
16975;SDS011;8604;48.148;-1.786;2023-02-28T05:27:50;15.33;;;9.23;;
16975;SDS011;8604;48.148;-1.786;2023-02-28T05:30:21;14.13;;;9.17;;
16975;SDS011;8604;48.148;-1.786;2023-02-28T05:32:51;16.47;;;9.73;;
16975;SDS011;8604;48.148;-1.786;2023-02-28T05:35:19;17.00;;;10.00;;
16975;SDS011;8604;48.148;-1.786;2023-02-28T05:37:48;13.60;;;8.97;;
16975;SDS011;8604;48.148;-1.786;2023-02-28T05:40:17;15.27;;;9.70;;
16975;SDS011;8604;48.148;-1.786;2023-02-28T05:42:46;13.03;;;9.10;;
16975;SDS011;8604;48.148;-1.786;2023-02-28T05:45:15;13.93;;;10.17;;
16975;SDS011;8604;48.148;-1.786;2023-02-28T05:47:44;13.37;;;9.40;;
16975;SDS011;8604;48.148;-1.786;2023-02-28T05:50:13;15.37;;;10.03;;
16975;SDS011;8604;48.148;-1.786;2023-02-28T05:52:42;16.00;;;10.17;;
16975;SDS011;8604;48.148;-1.786;2023-02-28T05:55:11;14.60;;;10.03;;
16975;SDS011;8604;48.148;-1.786;2023-02-28T05:57:39;15.07;;;10.07;;
16975;SDS011;8604;48.148;-1.786;2023-02-28T06:00:09;15.47;;;10.03;;
16975;SDS011;8604;48.148;-1.786;2023-02-28T06:02:44;16.60;;;10.00;;
16975;SDS011;8604;48.148;-1.786;2023-02-28T06:05:17;14.60;;;10.30;;
16975;SDS011;8604;48.148;-1.786;2023-02-28T06:07:46;16.83;;;10.50;;
16975;SDS011;8604;48.148;-1.786;2023-02-28T06:10:14;17.03;;;9.73;;
16975;SDS011;8604;48.148;-1.786;2023-02-28T06:12:43;14.60;;;10.30;;
16975;SDS011;8604;48.148;-1.786;2023-02-28T06:15:12;17.97;;;10.63;;
16975;SDS011;8604;48.148;-1.786;2023-02-28T06:17:44;14.97;;;10.53;;
16975;SDS011;8604;48.148;-1.786;2023-02-28T06:20:13;17.73;;;11.30;;
16975;SDS011;8604;48.148;-1.786;2023-02-28T06:22:43;16.17;;;10.73;;
16975;SDS011;8604;48.148;-1.786;2023-02-28T06:25:12;15.83;;;11.17;;
16975;SDS011;8604;48.148;-1.786;2023-02-28T06:27:41;15.80;;;10.77;;
16975;SDS011;8604;48.148;-1.786;2023-02-28T06:30:10;16.03;;;10.57;;
16975;SDS011;8604;48.148;-1.786;2023-02-28T06:32:39;16.07;;;11.20;;
16975;SDS011;8604;48.148;-1.786;2023-02-28T06:35:07;18.37;;;11.30;;
16975;SDS011;8604;48.148;-1.786;2023-02-28T06:37:36;16.07;;;11.10;;
16975;SDS011;8604;48.148;-1.786;2023-02-28T06:40:09;18.40;;;11.90;;
16975;SDS011;8604;48.148;-1.786;2023-02-28T06:42:39;18.67;;;12.47;;
16975;SDS011;8604;48.148;-1.786;2023-02-28T06:45:08;16.87;;;11.70;;
16975;SDS011;8604;48.148;-1.786;2023-02-28T08:40:41;17.23;;;13.33;;
16975;SDS011;8604;48.148;-1.786;2023-02-28T08:43:27;17.87;;;13.90;;
16975;SDS011;8604;48.148;-1.786;2023-02-28T13:33:24;6.27;;;4.20;;
16975;SDS011;8604;48.148;-1.786;2023-02-28T14:43:49;11.67;;;7.93;;
16975;SDS011;8604;48.148;-1.786;2023-02-28T14:46:53;8.93;;;6.70;;
16975;SDS011;8604;48.148;-1.786;2023-02-28T15:15:58;11.10;;;7.60;;
16975;SDS011;8604;48.148;-1.786;2023-02-28T15:20:52;11.10;;;8.07;;
16975;SDS011;8604;48.148;-1.786;2023-02-28T15:23:33;12.70;;;8.93;;
16975;SDS011;8604;48.148;-1.786;2023-02-28T15:27:33;13.43;;;9.23;;
16975;SDS011;8604;48.148;-1.786;2023-02-28T15:31:22;12.33;;;8.90;;
16975;SDS011;8604;48.148;-1.786;2023-02-28T15:37:38;12.83;;;9.70;;
16975;SDS011;8604;48.148;-1.786;2023-02-28T15:40:12;13.27;;;9.93;;
16975;SDS011;8604;48.148;-1.786;2023-02-28T15:49:34;14.37;;;9.70;;
16975;SDS011;8604;48.148;-1.786;2023-02-28T15:52:32;13.33;;;10.23;;
16975;SDS011;8604;48.148;-1.786;2023-02-28T15:55:36;13.37;;;10.77;;
16975;SDS011;8604;48.148;-1.786;2023-02-28T15:58:38;13.17;;;9.30;;
16975;SDS011;8604;48.148;-1.786;2023-02-28T16:02:36;13.43;;;9.73;;
16975;SDS011;8604;48.148;-1.786;2023-02-28T16:05:18;12.90;;;9.70;;
16975;SDS011;8604;48.148;-1.786;2023-02-28T16:07:55;13.60;;;9.93;;
16975;SDS011;8604;48.148;-1.786;2023-02-28T16:10:26;16.63;;;11.73;;
16975;SDS011;8604;48.148;-1.786;2023-02-28T16:12:59;12.70;;;9.13;;
16975;SDS011;8604;48.148;-1.786;2023-02-28T16:15:42;11.63;;;9.80;;
16975;SDS011;8604;48.148;-1.786;2023-02-28T16:18:20;14.40;;;10.70;;
16975;SDS011;8604;48.148;-1.786;2023-02-28T16:20:59;14.00;;;10.30;;
16975;SDS011;8604;48.148;-1.786;2023-02-28T16:23:28;14.10;;;10.50;;
16975;SDS011;8604;48.148;-1.786;2023-02-28T16:25:57;13.30;;;10.20;;
16975;SDS011;8604;48.148;-1.786;2023-02-28T16:28:27;13.83;;;10.10;;
16975;SDS011;8604;48.148;-1.786;2023-02-28T16:31:00;12.33;;;9.53;;
16975;SDS011;8604;48.148;-1.786;2023-02-28T16:33:32;14.73;;;10.47;;
16975;SDS011;8604;48.148;-1.786;2023-02-28T16:38:57;17.60;;;12.97;;
16975;SDS011;8604;48.148;-1.786;2023-02-28T16:41:26;15.20;;;11.70;;
16975;SDS011;8604;48.148;-1.786;2023-02-28T16:43:56;16.93;;;11.83;;
16975;SDS011;8604;48.148;-1.786;2023-02-28T16:46:28;17.33;;;13.13;;
16975;SDS011;8604;48.148;-1.786;2023-02-28T16:49:02;16.53;;;12.97;;
16975;SDS011;8604;48.148;-1.786;2023-02-28T16:51:31;18.33;;;13.50;;
16975;SDS011;8604;48.148;-1.786;2023-02-28T16:54:01;19.00;;;14.10;;
16975;SDS011;8604;48.148;-1.786;2023-02-28T16:56:30;16.80;;;12.97;;
16975;SDS011;8604;48.148;-1.786;2023-02-28T17:00:22;15.93;;;12.63;;
16975;SDS011;8604;48.148;-1.786;2023-02-28T19:39:10;33.90;;;23.77;;
16975;SDS011;8604;48.148;-1.786;2023-02-28T19:42:30;20.57;;;14.97;;
16975;SDS011;8604;48.148;-1.786;2023-02-28T19:45:14;20.83;;;14.57;;
16975;SDS011;8604;48.148;-1.786;2023-02-28T19:48:12;21.13;;;15.77;;
16975;SDS011;8604;48.148;-1.786;2023-02-28T19:51:05;16.43;;;11.93;;
16975;SDS011;8604;48.148;-1.786;2023-02-28T19:53:49;21.33;;;15.73;;
16975;SDS011;8604;48.148;-1.786;2023-02-28T19:56:37;16.03;;;10.67;;
16975;SDS011;8604;48.148;-1.786;2023-02-28T19:59:15;15.77;;;11.93;;
16975;SDS011;8604;48.148;-1.786;2023-02-28T20:02:08;17.27;;;12.37;;
16975;SDS011;8604;48.148;-1.786;2023-02-28T20:04:40;15.80;;;12.50;;
16975;SDS011;8604;48.148;-1.786;2023-02-28T20:07:09;37.80;;;21.10;;
16975;SDS011;8604;48.148;-1.786;2023-02-28T20:09:38;19.87;;;14.90;;
16975;SDS011;8604;48.148;-1.786;2023-02-28T20:12:08;18.40;;;13.40;;
16975;SDS011;8604;48.148;-1.786;2023-02-28T20:14:49;18.30;;;13.83;;
16975;SDS011;8604;48.148;-1.786;2023-02-28T20:17:18;17.83;;;13.47;;
16975;SDS011;8604;48.148;-1.786;2023-02-28T20:19:49;20.40;;;14.10;;
16975;SDS011;8604;48.148;-1.786;2023-02-28T20:22:18;19.40;;;14.13;;
16975;SDS011;8604;48.148;-1.786;2023-02-28T20:24:47;17.23;;;13.00;;
16975;SDS011;8604;48.148;-1.786;2023-02-28T22:33:02;26.17;;;17.40;;
16975;SDS011;8604;48.148;-1.786;2023-02-28T22:35:30;22.73;;;16.90;;
16975;SDS011;8604;48.148;-1.786;2023-02-28T22:37:59;29.53;;;18.67;;
16975;SDS011;8604;48.148;-1.786;2023-02-28T22:40:27;26.87;;;18.33;;
16975;SDS011;8604;48.148;-1.786;2023-02-28T22:42:56;23.60;;;18.27;;
16975;SDS011;8604;48.148;-1.786;2023-02-28T22:45:24;22.93;;;16.87;;
16975;SDS011;8604;48.148;-1.786;2023-02-28T22:47:53;22.70;;;16.87;;
16975;SDS011;8604;48.148;-1.786;2023-02-28T22:50:22;21.70;;;16.23;;
16975;SDS011;8604;48.148;-1.786;2023-02-28T22:52:51;23.33;;;17.63;;
16975;SDS011;8604;48.148;-1.786;2023-02-28T22:55:19;24.33;;;17.93;;
16975;SDS011;8604;48.148;-1.786;2023-02-28T22:57:48;23.50;;;17.37;;
16975;SDS011;8604;48.148;-1.786;2023-02-28T23:00:16;23.63;;;17.90;;
16975;SDS011;8604;48.148;-1.786;2023-02-28T23:02:46;23.03;;;18.10;;
16975;SDS011;8604;48.148;-1.786;2023-02-28T23:05:15;24.57;;;18.13;;
16975;SDS011;8604;48.148;-1.786;2023-02-28T23:07:45;23.50;;;17.43;;
16975;SDS011;8604;48.148;-1.786;2023-02-28T23:10:15;23.73;;;17.73;;
16975;SDS011;8604;48.148;-1.786;2023-02-28T23:12:44;23.80;;;18.37;;
16975;SDS011;8604;48.148;-1.786;2023-02-28T23:15:18;24.70;;;18.57;;
16975;SDS011;8604;48.148;-1.786;2023-02-28T23:17:47;25.13;;;18.87;;
16975;SDS011;8604;48.148;-1.786;2023-02-28T23:20:18;23.43;;;17.63;;
16975;SDS011;8604;48.148;-1.786;2023-02-28T23:22:48;25.60;;;19.37;;
16975;SDS011;8604;48.148;-1.786;2023-02-28T23:25:18;23.73;;;18.30;;
16975;SDS011;8604;48.148;-1.786;2023-02-28T23:27:47;25.53;;;18.80;;
16975;SDS011;8604;48.148;-1.786;2023-02-28T23:30:16;23.80;;;18.03;;
16975;SDS011;8604;48.148;-1.786;2023-02-28T23:32:45;25.70;;;18.63;;
16975;SDS011;8604;48.148;-1.786;2023-02-28T23:35:14;26.77;;;18.97;;
16975;SDS011;8604;48.148;-1.786;2023-02-28T23:37:43;26.40;;;19.63;;
16975;SDS011;8604;48.148;-1.786;2023-02-28T23:40:13;24.90;;;18.67;;
16975;SDS011;8604;48.148;-1.786;2023-02-28T23:42:42;24.87;;;19.60;;
16975;SDS011;8604;48.148;-1.786;2023-02-28T23:45:11;26.60;;;19.63;;
16975;SDS011;8604;48.148;-1.786;2023-02-28T23:47:39;26.07;;;19.57;;
16975;SDS011;8604;48.148;-1.786;2023-02-28T23:50:08;26.63;;;19.40;;
16975;SDS011;8604;48.148;-1.786;2023-02-28T23:52:37;26.90;;;20.13;;
16975;SDS011;8604;48.148;-1.786;2023-02-28T23:55:06;27.47;;;20.20;;
16975;SDS011;8604;48.148;-1.786;2023-02-28T23:57:36;25.20;;;19.53;;
